Time;durP1;ratioP1;P1;durP2;ratioP2;P2;SDS_P1;SDS_P2;PMS_P1;PMS_P2;Temp;Humidity;BMP_temperature;BMP_pressure;BME280_temperature;BME280_humidity;BME280_pressure;Samples;Min_cycle;Max_cycle;Signal;HPM_P1;HPM_P2
2024/03/20 00:02:19;;;;;;;5.70;3.43;;;;;;;8.51;100.00;96551.94;4975016;28;20214;-71
2024/03/20 00:04:45;;;;;;;5.50;3.10;;;;;;;8.57;100.00;96553.91;4974354;28;20688;-72
2024/03/20 00:07:13;;;;;;;6.37;3.33;;;;;;;8.75;100.00;96551.22;4974743;28;20234;-71
2024/03/20 00:09:39;;;;;;;7.83;3.33;;;;;;;8.48;100.00;96556.66;4975526;28;20554;-72
2024/03/20 00:12:07;;;;;;;4.30;3.00;;;;;;;8.54;100.00;96561.28;4974673;28;20207;-71
2024/03/20 00:14:33;;;;;;;6.13;3.47;;;;;;;8.49;100.00;96553.88;4974616;28;20195;-72
2024/03/20 00:17:02;;;;;;;4.87;3.43;;;;;;;8.46;100.00;96555.19;4974370;28;20227;-72
2024/03/20 00:19:27;;;;;;;5.07;3.27;;;;;;;8.45;100.00;96556.97;4974479;28;20288;-71
2024/03/20 00:21:54;;;;;;;6.00;3.33;;;;;;;8.48;100.00;96559.31;4974150;28;20590;-71
2024/03/20 00:24:22;;;;;;;6.27;3.70;;;;;;;8.66;100.00;96557.41;4975187;28;20207;-72
2024/03/20 00:26:48;;;;;;;6.23;3.80;;;;;;;8.41;100.00;96562.69;4974341;28;20203;-70
2024/03/20 00:29:16;;;;;;;5.00;3.00;;;;;;;8.35;100.00;96552.81;4974348;28;20211;-70
2024/03/20 00:31:42;;;;;;;6.93;3.50;;;;;;;8.49;100.00;96548.63;4974463;28;20690;-69
2024/03/20 00:34:09;;;;;;;8.03;4.20;;;;;;;8.48;100.00;96548.78;4975216;28;20203;-70
2024/03/20 00:36:35;;;;;;;8.50;4.10;;;;;;;8.45;100.00;96553.53;4974409;28;20211;-69
2024/03/20 00:39:02;;;;;;;5.97;3.30;;;;;;;8.35;100.00;96547.56;4974802;28;20208;-69
2024/03/20 00:41:29;;;;;;;8.20;3.73;;;;;;;8.48;100.00;96544.34;4974351;28;20233;-72
2024/03/20 00:43:56;;;;;;;8.77;3.70;;;;;;;8.20;100.00;96536.81;4974380;28;20708;-73
2024/03/20 00:46:22;;;;;;;5.70;3.23;;;;;;;8.31;100.00;96536.56;4974010;28;20381;-71
2024/03/20 00:48:49;;;;;;;5.20;3.00;;;;;;;8.27;100.00;96529.16;4974555;28;20238;-69
2024/03/20 00:51:15;;;;;;;4.73;3.07;;;;;;;8.25;100.00;96531.09;4974107;28;20393;-69
2024/03/20 00:53:43;;;;;;;8.03;3.10;;;;;;;8.13;100.00;96537.56;4974558;28;20215;-70
2024/03/20 00:56:09;;;;;;;4.77;3.17;;;;;;;8.17;100.00;96531.91;4973792;28;20401;-68
2024/03/20 00:58:37;;;;;;;6.23;4.13;;;;;;;8.15;100.00;96533.03;4973900;28;20223;-71
2024/03/20 01:01:04;;;;;;;6.77;3.77;;;;;;;8.02;100.00;96529.97;4974764;28;20223;-71
2024/03/20 01:03:32;;;;;;;6.83;3.50;;;;;;;7.85;100.00;96533.44;4973588;28;20681;-70
2024/03/20 01:05:58;;;;;;;8.20;3.73;;;;;;;7.93;100.00;96525.63;4974679;28;20207;-71
2024/03/20 01:08:25;;;;;;;10.13;4.87;;;;;;;7.94;100.00;96530.72;4974813;28;20709;-71
2024/03/20 01:10:51;;;;;;;9.20;4.30;;;;;;;8.03;100.00;96526.34;4974821;28;20725;-71
2024/03/20 01:13:19;;;;;;;6.57;3.90;;;;;;;8.32;100.00;96521.63;4976183;28;20210;-71
2024/03/20 01:15:47;;;;;;;5.73;3.33;;;;;;;8.21;100.00;96525.34;4974120;28;20595;-69
2024/03/20 01:18:13;;;;;;;6.73;3.73;;;;;;;7.99;100.00;96531.09;4974633;28;20233;-69
2024/03/20 01:20:40;;;;;;;5.37;2.93;;;;;;;8.04;100.00;96526.22;4974159;28;20224;-69
2024/03/20 01:23:06;;;;;;;6.93;3.30;;;;;;;7.92;100.00;96532.66;4975088;28;20211;-71
2024/03/20 01:25:33;;;;;;;6.40;3.60;;;;;;;7.85;100.00;96536.06;4974603;28;20578;-71
2024/03/20 01:27:59;;;;;;;5.10;3.40;;;;;;;7.77;100.00;96535.19;4973596;28;20229;-69
2024/03/20 01:30:26;;;;;;;4.73;3.13;;;;;;;7.62;100.00;96527.03;4974498;28;20207;-71
2024/03/20 01:32:54;;;;;;;6.70;3.70;;;;;;;8.00;100.00;96526.66;4975115;28;20199;-71
2024/03/20 01:35:20;;;;;;;6.17;3.73;;;;;;;7.86;100.00;96531.66;4974005;28;20673;-71
2024/03/20 01:37:47;;;;;;;6.73;3.70;;;;;;;7.75;100.00;96526.63;4973364;28;20230;-68
2024/03/20 01:40:14;;;;;;;7.43;3.43;;;;;;;7.69;100.00;96528.06;4975547;28;20231;-72
2024/03/20 01:42:40;;;;;;;6.47;3.60;;;;;;;7.82;100.00;96531.13;4974471;28;20210;-69
2024/03/20 01:45:12;;;;;;;6.80;3.60;;;;;;;8.06;100.00;96526.03;4974668;28;20241;-69
2024/03/20 01:47:38;;;;;;;6.60;3.70;;;;;;;7.67;100.00;96523.97;4973465;28;20237;-70
2024/03/20 01:50:08;;;;;;;6.40;3.43;;;;;;;7.98;100.00;96518.94;4975099;28;20385;-71
2024/03/20 01:52:35;;;;;;;6.13;3.37;;;;;;;7.88;100.00;96517.41;4973979;28;20260;-71
2024/03/20 01:55:02;;;;;;;7.37;4.00;;;;;;;7.86;100.00;96511.47;4974907;28;20199;-72
2024/03/20 01:57:28;;;;;;;5.50;3.73;;;;;;;7.65;100.00;96515.41;4975505;28;20219;-70
2024/03/20 01:59:55;;;;;;;7.03;3.40;;;;;;;7.46;100.00;96516.41;4974535;28;20238;-69
2024/03/20 02:02:21;;;;;;;6.73;3.27;;;;;;;7.26;100.00;96516.72;4974425;28;20586;-71
2024/03/20 02:04:48;;;;;;;7.37;3.87;;;;;;;7.20;100.00;96506.03;4974063;28;20203;-68
2024/03/20 02:07:16;;;;;;;5.93;4.27;;;;;;;7.52;100.00;96510.56;4973815;28;20462;-68
2024/03/20 02:09:42;;;;;;;8.23;4.07;;;;;;;7.37;100.00;96506.03;4975672;28;20199;-71
2024/03/20 02:12:09;;;;;;;6.90;4.00;;;;;;;7.41;100.00;96502.94;4977829;28;20203;-69
2024/03/20 02:14:38;;;;;;;6.53;3.97;;;;;;;7.32;100.00;96505.66;4978097;28;20389;-68
2024/03/20 02:17:05;;;;;;;6.23;4.20;;;;;;;7.29;100.00;96504.16;4976130;28;20238;-71
2024/03/20 02:19:31;;;;;;;7.73;4.43;;;;;;;7.29;100.00;96503.31;4976854;28;20213;-71
2024/03/20 02:21:59;;;;;;;6.50;3.83;;;;;;;7.54;100.00;96492.88;4979349;28;20199;-71
2024/03/20 02:24:27;;;;;;;6.57;3.60;;;;;;;7.32;100.00;96498.59;4977347;28;20211;-72
2024/03/20 02:26:54;;;;;;;9.80;4.97;;;;;;;7.22;100.00;96498.81;4976991;28;20242;-68
2024/03/20 02:29:20;;;;;;;5.77;3.50;;;;;;;7.14;100.00;96504.84;4977256;28;20950;-71
2024/03/20 02:31:47;;;;;;;7.03;4.43;;;;;;;7.10;100.00;96503.47;4977615;28;20206;-70
2024/03/20 02:34:13;;;;;;;8.17;4.27;;;;;;;6.88;100.00;96511.75;4976562;28;20214;-68
2024/03/20 02:36:40;;;;;;;8.20;4.73;;;;;;;6.90;100.00;96519.50;4977285;28;20217;-68
2024/03/20 02:39:08;;;;;;;9.67;5.13;;;;;;;7.04;100.00;96503.22;4977362;28;20631;-71
2024/03/20 02:41:35;;;;;;;8.77;4.60;;;;;;;7.01;100.00;96508.78;4976974;28;20412;-69
2024/03/20 02:44:01;;;;;;;7.40;4.10;;;;;;;7.02;100.00;96505.19;4977205;28;20677;-69
2024/03/20 02:46:27;;;;;;;6.43;3.90;;;;;;;7.08;100.00;96507.22;4976520;28;20214;-71
2024/03/20 02:48:54;;;;;;;6.23;3.70;;;;;;;7.08;100.00;96509.84;4976266;28;20613;-70
2024/03/20 02:51:21;;;;;;;7.40;3.97;;;;;;;6.93;100.00;96513.94;4977899;28;20212;-69
2024/03/20 02:53:48;;;;;;;6.83;3.33;;;;;;;6.95;100.00;96510.22;4977146;28;20295;-70
2024/03/20 02:56:15;;;;;;;6.10;3.57;;;;;;;7.20;100.00;96508.66;4976016;28;20212;-71
2024/03/20 02:58:42;;;;;;;5.33;3.00;;;;;;;7.01;100.00;96511.41;4977356;28;20235;-71
2024/03/20 03:01:08;;;;;;;9.63;3.67;;;;;;;7.07;100.00;96514.25;4977346;28;20227;-70
2024/03/20 03:03:35;;;;;;;5.60;3.47;;;;;;;7.12;100.00;96508.56;4976032;28;20669;-70
2024/03/20 03:06:02;;;;;;;7.10;4.00;;;;;;;7.14;100.00;96515.31;4976045;28;20210;-69
2024/03/20 03:08:28;;;;;;;6.53;3.13;;;;;;;7.09;100.00;96508.84;4976198;28;20227;-71
2024/03/20 03:11:43;;;;;;;4.77;2.83;;;;;;;7.47;100.00;96512.81;4976395;28;20199;-71
2024/03/20 03:14:11;;;;;;;8.03;4.30;;;;;;;7.14;100.00;96517.09;4974099;28;20677;-70
2024/03/20 03:16:37;;;;;;;7.63;3.90;;;;;;;6.79;100.00;96525.75;4976058;28;20207;-71
2024/03/20 03:19:05;;;;;;;6.73;3.57;;;;;;;6.93;100.00;96521.81;4977695;28;20211;-68
2024/03/20 03:21:31;;;;;;;7.20;3.83;;;;;;;6.95;100.00;96515.44;4976177;28;20307;-71
2024/03/20 03:23:58;;;;;;;6.83;3.80;;;;;;;7.02;100.00;96528.78;4975751;28;20210;-71
2024/03/20 03:26:24;;;;;;;5.93;3.70;;;;;;;6.94;100.00;96524.28;4975347;28;20599;-69
2024/03/20 03:28:51;;;;;;;8.90;3.90;;;;;;;6.95;100.00;96525.09;4975917;28;20238;-69
2024/03/20 03:31:19;;;;;;;6.20;3.80;;;;;;;6.99;100.00;96529.91;4976964;28;20208;-69
2024/03/20 03:33:45;;;;;;;4.67;3.00;;;;;;;6.80;100.00;96539.69;4976602;28;20206;-71
2024/03/20 03:36:12;;;;;;;5.37;3.67;;;;;;;6.82;100.00;96535.09;4975639;28;20211;-71
2024/03/20 03:38:38;;;;;;;5.40;3.30;;;;;;;6.74;100.00;96538.44;4977510;28;20242;-70
2024/03/20 03:41:05;;;;;;;7.57;3.47;;;;;;;6.76;100.00;96544.38;4975293;28;20231;-69
2024/03/20 03:43:32;;;;;;;6.20;3.23;;;;;;;6.68;100.00;96549.53;4976774;28;20207;-70
2024/03/20 03:45:58;;;;;;;6.83;3.43;;;;;;;6.54;100.00;96543.94;4976382;28;20204;-71
2024/03/20 03:48:27;;;;;;;7.47;3.50;;;;;;;6.73;100.00;96546.44;4975446;28;20486;-72
2024/03/20 03:50:53;;;;;;;5.50;3.40;;;;;;;6.71;100.00;96543.97;4975549;28;20256;-72
2024/03/20 03:53:20;;;;;;;6.73;3.53;;;;;;;6.66;100.00;96548.03;4977246;28;20580;-70
2024/03/20 03:55:46;;;;;;;4.87;3.23;;;;;;;6.77;100.00;96551.25;4975644;28;20207;-71
2024/03/20 03:58:14;;;;;;;5.50;3.33;;;;;;;6.69;100.00;96550.34;4974728;28;20776;-70
2024/03/20 04:00:40;;;;;;;5.27;3.30;;;;;;;6.67;100.00;96545.25;4976255;28;20574;-70
2024/03/20 04:03:07;;;;;;;7.10;3.60;;;;;;;6.65;100.00;96554.22;4976558;28;20445;-72
2024/03/20 04:05:35;;;;;;;5.80;2.90;;;;;;;6.90;100.00;96556.97;4975638;28;20210;-69
2024/03/20 04:08:03;;;;;;;5.30;3.20;;;;;;;6.76;100.00;96551.41;4974888;28;20462;-70
2024/03/20 04:10:29;;;;;;;5.07;3.37;;;;;;;6.68;100.00;96556.53;4976729;28;20215;-72
2024/03/20 04:12:56;;;;;;;5.63;3.37;;;;;;;6.70;100.00;96559.84;4975394;28;20199;-69
2024/03/20 04:15:22;;;;;;;8.73;3.50;;;;;;;6.58;100.00;96561.03;4976551;28;20213;-69
2024/03/20 04:17:49;;;;;;;4.90;3.10;;;;;;;6.58;100.00;96552.31;4975410;28;20235;-72
2024/03/20 04:20:15;;;;;;;5.33;3.10;;;;;;;6.64;100.00;96555.19;4975749;28;20390;-71
2024/03/20 04:22:43;;;;;;;6.50;3.17;;;;;;;6.67;100.00;96557.53;4975029;28;20211;-71
2024/03/20 04:25:09;;;;;;;3.93;2.50;;;;;;;6.43;100.00;96549.38;4975763;28;20214;-69
2024/03/20 04:27:36;;;;;;;5.07;2.97;;;;;;;6.65;100.00;96555.03;4974804;28;20231;-72
2024/03/20 04:30:03;;;;;;;6.63;3.47;;;;;;;6.39;100.00;96552.41;4975504;28;20207;-72
2024/03/20 04:32:30;;;;;;;4.47;2.80;;;;;;;6.37;100.00;96551.75;4974795;28;20536;-72
2024/03/20 04:34:57;;;;;;;5.27;2.93;;;;;;;6.56;100.00;96551.66;4975406;28;20609;-71
2024/03/20 04:37:23;;;;;;;5.83;2.93;;;;;;;6.63;100.00;96550.91;4973681;28;20233;-72
2024/03/20 04:39:51;;;;;;;5.80;3.67;;;;;;;6.74;100.00;96542.88;4975224;28;20669;-72
2024/03/20 04:42:18;;;;;;;3.87;2.60;;;;;;;6.61;100.00;96550.25;4975312;28;20230;-70
2024/03/20 04:44:44;;;;;;;5.23;3.07;;;;;;;6.49;100.00;96546.19;4975547;28;20294;-71
2024/03/20 04:47:11;;;;;;;5.50;2.80;;;;;;;6.45;100.00;96543.97;4974621;28;20740;-72
2024/03/20 04:49:37;;;;;;;3.67;2.30;;;;;;;6.41;100.00;96547.88;4976390;28;20211;-73
2024/03/20 04:52:04;;;;;;;3.67;2.63;;;;;;;6.30;100.00;96546.25;4975313;28;20220;-72
2024/03/20 04:54:30;;;;;;;3.97;2.63;;;;;;;6.32;100.00;96544.31;4975363;28;20207;-72
2024/03/20 04:56:58;;;;;;;4.80;3.17;;;;;;;6.52;100.00;96545.88;4975134;28;20207;-69
2024/03/20 04:59:25;;;;;;;4.23;2.80;;;;;;;6.38;100.00;96540.31;4974949;28;21317;-70
2024/03/20 05:01:51;;;;;;;5.70;3.67;;;;;;;6.38;100.00;96543.75;4975063;28;20227;-72
2024/03/20 05:04:18;;;;;;;4.60;3.20;;;;;;;6.32;100.00;96536.44;4975072;28;20453;-71
2024/03/20 05:06:44;;;;;;;5.57;3.47;;;;;;;6.31;100.00;96537.44;4974485;28;20210;-69
2024/03/20 05:09:11;;;;;;;5.47;2.77;;;;;;;6.33;100.00;96538.09;4974107;28;20210;-71
2024/03/20 05:11:37;;;;;;;4.07;2.73;;;;;;;6.28;100.00;96556.03;4975045;28;20230;-70
2024/03/20 05:14:05;;;;;;;3.83;2.47;;;;;;;6.20;100.00;96548.06;4975711;28;20255;-72
2024/03/20 05:16:32;;;;;;;4.63;2.87;;;;;;;6.24;100.00;96543.38;4973987;28;20211;-71
2024/03/20 05:18:58;;;;;;;3.57;2.70;;;;;;;6.22;100.00;96551.38;4974092;28;20226;-71
2024/03/20 05:21:24;;;;;;;4.33;2.87;;;;;;;6.07;100.00;96547.56;4975889;28;20227;-69
2024/03/20 05:23:50;;;;;;;4.47;2.87;;;;;;;6.11;100.00;96556.78;4974520;28;20221;-72
2024/03/20 05:26:17;;;;;;;4.00;3.00;;;;;;;6.05;100.00;96553.91;4974616;28;20210;-72
2024/03/20 05:28:43;;;;;;;5.30;3.40;;;;;;;6.20;100.00;96548.06;4974880;28;20226;-72
2024/03/20 05:31:26;;;;;;;4.47;3.10;;;;;;;6.43;100.00;96556.38;4975094;28;20557;-72
2024/03/20 05:33:51;;;;;;;7.53;3.33;;;;;;;6.26;100.00;96567.59;4974924;28;20202;-72
2024/03/20 05:36:18;;;;;;;4.83;3.13;;;;;;;6.22;100.00;96563.63;4974513;28;20672;-70
2024/03/20 05:38:44;;;;;;;6.83;2.93;;;;;;;6.29;100.00;96568.16;4974607;28;20704;-71
2024/03/20 05:41:10;;;;;;;5.60;3.50;;;;;;;6.39;100.00;96574.19;4974304;28;20234;-70
2024/03/20 05:43:37;;;;;;;7.43;3.13;;;;;;;6.35;100.00;96575.44;4974429;28;20723;-69
2024/03/20 05:46:04;;;;;;;5.93;3.23;;;;;;;6.38;100.00;96577.75;4974303;28;20207;-70
2024/03/20 05:48:32;;;;;;;4.27;2.63;;;;;;;6.34;100.00;96580.78;4973338;28;20238;-72
2024/03/20 05:50:57;;;;;;;5.77;3.17;;;;;;;6.17;100.00;96581.53;4974160;28;20195;-72
2024/03/20 05:53:24;;;;;;;4.80;2.70;;;;;;;6.39;100.00;96589.88;4975196;28;20210;-72
2024/03/20 05:55:50;;;;;;;6.27;2.70;;;;;;;6.41;100.00;96582.69;4974467;28;20373;-71
2024/03/20 05:58:16;;;;;;;8.63;3.40;;;;;;;6.41;100.00;96581.88;4974042;28;20226;-72
2024/03/20 06:00:42;;;;;;;5.57;3.20;;;;;;;6.57;100.00;96584.69;4973189;28;20214;-69
2024/03/20 06:03:09;;;;;;;9.57;3.90;;;;;;;6.64;100.00;96581.38;4974842;28;20214;-69
2024/03/20 06:05:35;;;;;;;5.83;3.33;;;;;;;6.81;100.00;96580.59;4974806;28;20221;-71
2024/03/20 06:08:02;;;;;;;7.03;3.57;;;;;;;6.66;100.00;96584.69;4974017;28;20314;-69
2024/03/20 06:10:28;;;;;;;7.07;3.47;;;;;;;6.58;100.00;96581.97;4974546;28;20646;-72
2024/03/20 06:12:55;;;;;;;7.43;3.50;;;;;;;6.60;100.00;96590.47;4975400;28;20210;-72
2024/03/20 06:15:20;;;;;;;6.70;3.70;;;;;;;6.65;100.00;96590.88;4974111;28;20207;-71
2024/03/20 06:17:47;;;;;;;5.37;3.17;;;;;;;6.71;100.00;96587.69;4974253;28;20573;-70
2024/03/20 06:20:13;;;;;;;4.67;2.90;;;;;;;6.88;100.00;96597.38;4974028;28;20206;-71
2024/03/20 06:22:41;;;;;;;5.63;3.47;;;;;;;7.05;100.00;96600.06;4975641;28;20264;-70
2024/03/20 06:25:07;;;;;;;7.40;3.80;;;;;;;7.07;100.00;96597.28;4974075;28;20203;-72
2024/03/20 06:27:34;;;;;;;10.07;4.20;;;;;;;6.93;100.00;96595.97;4973678;28;20252;-70
2024/03/20 06:30:00;;;;;;;5.47;3.40;;;;;;;7.03;100.00;96603.78;4973811;28;20206;-72
2024/03/20 06:32:28;;;;;;;7.17;4.37;;;;;;;7.13;100.00;96607.16;4975077;28;20233;-72
2024/03/20 06:34:54;;;;;;;7.13;3.80;;;;;;;7.17;100.00;96601.50;4974843;28;20208;-70
2024/03/20 06:37:20;;;;;;;8.47;4.00;;;;;;;7.12;100.00;96601.09;4973761;28;20232;-69
2024/03/20 06:39:48;;;;;;;9.33;4.37;;;;;;;7.49;100.00;96600.00;4974789;28;20574;-71
2024/03/20 06:42:16;;;;;;;6.20;3.47;;;;;;;7.32;100.00;96603.44;4973592;28;20230;-72
2024/03/20 06:44:43;;;;;;;9.30;4.03;;;;;;;7.54;100.00;96599.56;4974318;28;20582;-70
2024/03/20 06:47:09;;;;;;;13.37;5.23;;;;;;;7.45;100.00;96601.28;4973742;28;20239;-72
2024/03/20 06:49:35;;;;;;;9.13;4.63;;;;;;;7.40;100.00;96593.03;4974568;28;20612;-71
2024/03/20 06:52:01;;;;;;;8.80;4.27;;;;;;;7.63;100.00;96596.88;4973844;28;20290;-71
2024/03/20 06:54:28;;;;;;;10.70;4.60;;;;;;;7.57;100.00;96594.03;4975077;28;20586;-71
2024/03/20 06:56:58;;;;;;;12.30;5.20;;;;;;;7.95;100.00;96597.13;4976519;28;20218;-72
2024/03/20 06:59:25;;;;;;;9.10;4.53;;;;;;;7.91;100.00;96595.78;4977750;28;20211;-72
2024/03/20 07:01:51;;;;;;;12.43;5.50;;;;;;;7.99;100.00;96596.69;4977209;28;20234;-70
2024/03/20 07:04:17;;;;;;;10.13;4.97;;;;;;;7.96;100.00;96599.59;4978071;28;20215;-72
2024/03/20 07:06:43;;;;;;;12.63;5.67;;;;;;;7.93;100.00;96593.84;4976351;28;20207;-70
2024/03/20 07:09:09;;;;;;;11.93;5.33;;;;;;;8.06;100.00;96594.28;4977558;28;20218;-72
2024/03/20 07:11:35;;;;;;;13.47;6.27;;;;;;;8.24;100.00;96602.97;4975007;28;20578;-70
2024/03/20 07:14:03;;;;;;;14.47;5.23;;;;;;;8.46;100.00;96598.00;4976141;28;20207;-72
2024/03/20 07:16:29;;;;;;;17.87;6.50;;;;;;;8.24;100.00;96595.91;4972508;28;20207;-71
2024/03/20 07:18:56;;;;;;;15.03;6.17;;;;;;;8.26;100.00;96591.34;4973590;28;20223;-70
2024/03/20 07:21:22;;;;;;;18.83;6.27;;;;;;;8.46;100.00;96590.13;4975049;28;20227;-71
2024/03/20 07:23:49;;;;;;;11.93;5.57;;;;;;;8.55;100.00;96592.66;4976191;28;20268;-71
2024/03/20 07:26:14;;;;;;;14.07;6.37;;;;;;;8.51;100.00;96590.50;4975459;28;20257;-72
2024/03/20 07:28:41;;;;;;;12.40;6.07;;;;;;;8.79;100.00;96590.13;4975831;28;20385;-72
2024/03/20 07:31:08;;;;;;;11.23;5.60;;;;;;;8.83;100.00;96588.84;4976441;28;20336;-71
2024/03/20 07:33:35;;;;;;;14.13;5.87;;;;;;;8.91;100.00;96591.53;4977965;28;20211;-70
2024/03/20 07:36:00;;;;;;;12.37;6.17;;;;;;;8.92;100.00;96590.50;4980870;28;20646;-72
2024/03/20 07:38:27;;;;;;;13.67;5.63;;;;;;;9.06;100.00;96595.16;4974983;28;20839;-72
2024/03/20 07:40:52;;;;;;;10.27;5.80;;;;;;;9.09;100.00;96597.50;4976956;28;20215;-72
2024/03/20 07:43:19;;;;;;;10.37;5.30;;;;;;;8.91;100.00;96599.41;4976569;28;20231;-71
2024/03/20 07:45:45;;;;;;;9.10;5.10;;;;;;;8.97;100.00;96601.38;4977167;28;20207;-73
2024/03/20 07:48:13;;;;;;;10.00;4.90;;;;;;;8.90;100.00;96604.81;4975129;28;20249;-73
2024/03/20 07:50:39;;;;;;;8.83;4.50;;;;;;;8.96;100.00;96615.53;4975891;28;20208;-75
2024/03/20 07:53:05;;;;;;;10.60;5.07;;;;;;;8.95;100.00;96605.97;4974852;28;20207;-72
2024/03/20 07:55:31;;;;;;;12.73;5.57;;;;;;;9.35;100.00;96603.47;4976130;28;20211;-74
2024/03/20 07:57:58;;;;;;;10.27;5.23;;;;;;;9.37;100.00;96604.16;4974326;28;20222;-71
2024/03/20 08:00:28;;;;;;;10.60;5.53;;;;;;;9.43;100.00;96611.38;4976588;28;20207;-74
2024/03/20 08:02:55;;;;;;;12.97;5.73;;;;;;;9.46;100.00;96611.09;4976353;28;20260;-73
2024/03/20 08:05:22;;;;;;;11.40;5.13;;;;;;;9.71;100.00;96614.41;4975745;28;20207;-74
2024/03/20 08:07:49;;;;;;;7.30;4.30;;;;;;;9.77;100.00;96613.75;4974946;28;20231;-73
2024/03/20 08:10:14;;;;;;;10.07;4.90;;;;;;;9.37;100.00;96610.22;4973956;28;20207;-73
2024/03/20 08:12:41;;;;;;;8.97;5.00;;;;;;;9.65;100.00;96610.78;4975258;28;20199;-74
2024/03/20 08:15:08;;;;;;;8.97;4.70;;;;;;;9.89;100.00;96607.19;4975446;28;20292;-73
2024/03/20 08:17:36;;;;;;;12.17;5.30;;;;;;;9.63;100.00;96612.75;4975798;28;20368;-73
2024/03/20 08:20:02;;;;;;;9.17;4.50;;;;;;;9.63;100.00;96612.75;4974878;28;20265;-73
2024/03/20 08:22:30;;;;;;;10.60;4.73;;;;;;;9.90;100.00;96624.63;4973766;28;20246;-72
2024/03/20 08:24:55;;;;;;;9.87;5.37;;;;;;;9.80;100.00;96620.50;4973853;28;20208;-71
2024/03/20 08:27:26;;;;;;;10.47;4.73;;;;;;;9.91;100.00;96621.00;4973655;28;20219;-72
2024/03/20 08:29:54;;;;;;;10.33;5.00;;;;;;;10.01;100.00;96623.53;4973746;28;20203;-72
2024/03/20 08:32:21;;;;;;;8.60;4.70;;;;;;;10.22;100.00;96626.47;4974986;28;20547;-70
2024/03/20 08:34:47;;;;;;;9.87;5.57;;;;;;;10.26;100.00;96628.63;4975365;28;20207;-72
2024/03/20 08:37:13;;;;;;;17.27;6.40;;;;;;;10.21;100.00;96633.56;4974685;28;20234;-72
2024/03/20 08:39:40;;;;;;;13.83;6.33;;;;;;;10.34;100.00;96620.72;4975368;28;20207;-71
2024/03/20 08:42:07;;;;;;;11.20;5.33;;;;;;;10.15;100.00;96622.88;4975436;28;20336;-71
2024/03/20 08:44:33;;;;;;;12.10;6.10;;;;;;;10.57;100.00;96625.13;4974568;28;20203;-72
2024/03/20 08:47:00;;;;;;;10.60;5.63;;;;;;;10.70;100.00;96628.03;4973672;28;20246;-70
2024/03/20 08:49:25;;;;;;;8.73;5.10;;;;;;;10.75;100.00;96627.56;4975942;28;20657;-71
2024/03/20 08:51:53;;;;;;;12.27;6.17;;;;;;;10.95;100.00;96627.81;4975476;28;20215;-72
2024/03/20 08:54:20;;;;;;;14.07;6.97;;;;;;;10.94;100.00;96626.16;4974278;28;20210;-71
2024/03/20 08:56:48;;;;;;;15.83;7.13;;;;;;;11.43;100.00;96622.34;4974334;28;20215;-73
2024/03/20 08:59:14;;;;;;;13.77;6.70;;;;;;;11.45;100.00;96623.00;4975042;28;20211;-73
2024/03/20 09:01:40;;;;;;;15.47;6.83;;;;;;;11.61;100.00;96625.59;4972843;28;20385;-71
2024/03/20 09:04:06;;;;;;;14.43;7.57;;;;;;;11.62;100.00;96628.03;4975007;28;20217;-70
2024/03/20 09:06:32;;;;;;;13.03;6.47;;;;;;;11.63;100.00;96621.78;4973940;28;20211;-70
2024/03/20 09:08:58;;;;;;;15.53;7.17;;;;;;;11.40;100.00;96625.31;4973258;28;20231;-69
2024/03/20 09:11:24;;;;;;;13.30;6.27;;;;;;;11.59;100.00;96617.00;4974366;28;20207;-71
2024/03/20 09:13:51;;;;;;;11.97;6.50;;;;;;;11.75;100.00;96611.63;4973775;28;20734;-70
2024/03/20 09:16:18;;;;;;;11.67;6.47;;;;;;;11.68;100.00;96611.53;4973028;28;20207;-70
2024/03/20 09:18:43;;;;;;;11.53;6.07;;;;;;;11.82;100.00;96600.19;4971833;28;20227;-69
2024/03/20 09:21:10;;;;;;;10.77;5.20;;;;;;;12.02;100.00;96609.28;4972664;28;20208;-69
2024/03/20 09:23:37;;;;;;;11.60;6.07;;;;;;;11.89;100.00;96605.56;4974298;28;20224;-69
2024/03/20 09:26:04;;;;;;;12.97;5.97;;;;;;;11.98;100.00;96608.00;4972425;28;20416;-70
2024/03/20 09:28:30;;;;;;;8.47;4.57;;;;;;;12.25;100.00;96589.75;4972745;28;20229;-70
2024/03/20 09:30:59;;;;;;;9.67;5.60;;;;;;;12.26;100.00;96594.06;4973291;28;20673;-69
2024/03/20 09:33:24;;;;;;;10.27;5.43;;;;;;;11.89;100.00;96598.50;4972833;28;20281;-69
2024/03/20 09:35:52;;;;;;;10.03;5.03;;;;;;;12.06;100.00;96601.84;4973384;28;20690;-70
2024/03/20 09:38:18;;;;;;;11.90;5.63;;;;;;;12.39;100.00;96598.75;4972441;28;20227;-70
2024/03/20 09:40:44;;;;;;;8.70;4.90;;;;;;;12.27;100.00;96597.50;4972694;28;20199;-70
2024/03/20 09:43:10;;;;;;;8.83;5.43;;;;;;;12.52;100.00;96599.75;4969896;28;20219;-71
2024/03/20 09:45:38;;;;;;;10.07;4.70;;;;;;;12.76;100.00;96588.13;4970853;28;20203;-70
2024/03/20 09:48:08;;;;;;;11.77;5.83;;;;;;;12.95;100.00;96594.53;4971284;28;20235;-74
2024/03/20 09:50:38;;;;;;;9.30;4.70;;;;;;;12.93;100.00;96595.72;4973025;28;21083;-70
2024/03/20 09:53:05;;;;;;;10.43;5.07;;;;;;;12.89;100.00;96587.34;4973455;28;20208;-69
2024/03/20 09:55:34;;;;;;;10.63;5.53;;;;;;;12.93;100.00;96588.63;4973062;28;20285;-69
2024/03/20 09:58:00;;;;;;;9.23;5.40;;;;;;;12.78;100.00;96586.94;4971796;28;20215;-70
2024/03/20 10:00:27;;;;;;;9.67;5.07;;;;;;;13.00;100.00;96588.72;4972777;28;20199;-69
2024/03/20 10:02:54;;;;;;;14.00;5.40;;;;;;;12.89;100.00;96578.56;4973032;28;20293;-70
2024/03/20 10:05:22;;;;;;;10.17;4.90;;;;;;;13.05;100.00;96573.91;4973622;28;20392;-70
2024/03/20 10:07:48;;;;;;;8.73;3.93;;;;;;;12.96;100.00;96582.16;4972480;28;20372;-71
2024/03/20 10:10:16;;;;;;;13.27;5.53;;;;;;;13.22;100.00;96569.25;4974637;28;20203;-70
2024/03/20 10:12:42;;;;;;;9.63;5.50;;;;;;;13.42;100.00;96566.63;4974188;28;20199;-69
2024/03/20 10:15:10;;;;;;;12.23;5.13;;;;;;;13.79;100.00;96563.78;4974136;28;20211;-69
2024/03/20 10:17:37;;;;;;;8.17;4.37;;;;;;;13.78;100.00;96566.63;4973977;28;20304;-72
2024/03/20 10:20:14;;;;;;;10.77;5.37;;;;;;;14.57;100.00;96567.16;4974187;28;20208;-72
2024/03/20 10:22:41;;;;;;;9.43;4.47;;;;;;;14.56;100.00;96570.81;4973620;28;20223;-71
2024/03/20 10:25:09;;;;;;;8.47;4.13;;;;;;;14.03;100.00;96576.66;4973912;28;20203;-73
2024/03/20 10:27:36;;;;;;;9.90;4.90;;;;;;;14.45;100.00;96563.41;4972141;28;20238;-74
2024/03/20 10:30:06;;;;;;;7.90;3.67;;;;;;;14.64;100.00;96567.00;4973297;28;20284;-71
2024/03/20 10:32:33;;;;;;;7.33;4.20;;;;;;;14.87;100.00;96567.56;4977404;28;20261;-72
2024/03/20 10:35:02;;;;;;;7.23;4.10;;;;;;;15.19;100.00;96569.56;4977187;28;20210;-73
2024/03/20 10:37:28;;;;;;;6.80;3.93;;;;;;;15.08;100.00;96570.09;4975539;28;20243;-74
2024/03/20 10:39:58;;;;;;;6.83;3.53;;;;;;;15.04;100.00;96568.88;4977288;28;20286;-73
2024/03/20 10:42:25;;;;;;;6.93;4.13;;;;;;;15.27;100.00;96559.66;4977253;28;20224;-72
2024/03/20 10:44:53;;;;;;;7.38;4.15;;;;;;;15.52;100.00;96557.28;4977142;28;20204;-73
2024/03/20 10:47:19;;;;;;;7.47;3.42;;;;;;;15.89;100.00;96552.25;4975985;28;20234;-73
2024/03/20 10:49:47;;;;;;;7.20;3.97;;;;;;;15.09;100.00;96563.78;4977731;28;20286;-72
2024/03/20 10:52:14;;;;;;;7.67;4.30;;;;;;;15.41;100.00;96552.53;4977579;28;20207;-72
2024/03/20 10:54:41;;;;;;;8.63;3.90;;;;;;;16.00;100.00;96547.16;4977232;28;20218;-72
2024/03/20 10:57:10;;;;;;;9.48;4.32;;;;;;;16.10;100.00;96546.75;4977281;28;20227;-73
2024/03/20 10:59:37;;;;;;;8.23;4.68;;;;;;;15.48;100.00;96548.88;4977071;28;20642;-74
2024/03/20 11:02:04;;;;;;;10.15;4.95;;;;;;;16.05;100.00;96544.72;4976800;28;20235;-73
2024/03/20 11:04:32;;;;;;;6.38;3.80;;;;;;;16.30;100.00;96540.47;4976785;28;20207;-72
2024/03/20 11:06:58;;;;;;;8.52;4.05;;;;;;;16.10;100.00;96544.09;4976352;28;20691;-72
2024/03/20 11:09:26;;;;;;;7.47;3.83;;;;;;;16.47;100.00;96547.03;4976350;28;20207;-73
2024/03/20 11:11:52;;;;;;;6.35;3.47;;;;;;;16.40;100.00;96540.06;4976597;28;20668;-72
2024/03/20 11:14:29;;;;;;;7.35;3.80;;;;;;;16.92;97.82;96544.28;4977118;28;20207;-72
2024/03/20 11:17:03;;;;;;;8.75;3.65;;;;;;;17.17;98.56;96532.75;4975089;28;20240;-73
2024/03/20 11:19:29;;;;;;;7.05;3.97;;;;;;;16.95;100.00;96537.72;4975765;28;20207;-74
2024/03/20 11:21:58;;;;;;;7.55;4.40;;;;;;;16.89;100.00;96534.06;4977295;28;20221;-74
2024/03/20 11:24:24;;;;;;;7.22;3.65;;;;;;;17.04;100.00;96531.16;4976812;28;20206;-74
2024/03/20 11:26:51;;;;;;;8.00;3.88;;;;;;;17.22;100.00;96530.28;4976421;28;20257;-74
2024/03/20 11:29:18;;;;;;;8.00;3.58;;;;;;;17.18;100.00;96534.38;4977352;28;20203;-72